Time;durP1;ratioP1;P1;durP2;ratioP2;P2;SDS_P1;SDS_P2;PMS_P1;PMS_P2;Temp;Humidity;BMP_temperature;BMP_pressure;BME280_temperature;BME280_humidity;BME280_pressure;Samples;Min_cycle;Max_cycle;Signal;HPM_P1;HPM_P2
2022/04/20 00:00:15;;;;;;;4.10;3.12;;;;;;;13.88;35.61;101168.66;1640761;87;21480;-60
2022/04/20 00:02:44;;;;;;;4.42;3.50;;;;;;;13.85;36.14;101170.03;1595990;89;21060;-60
2022/04/20 00:05:10;;;;;;;5.55;3.45;;;;;;;13.83;36.65;101168.36;1638183;87;21481;-60
2022/04/20 00:07:39;;;;;;;6.92;3.20;;;;;;;13.79;37.13;101166.73;1637856;87;21495;-61
2022/04/20 00:10:07;;;;;;;3.60;3.30;;;;;;;13.75;37.56;101173.81;1637801;87;21047;-61
2022/04/20 00:12:35;;;;;;;4.22;3.37;;;;;;;13.72;37.94;101173.05;1632318;87;21499;-61
2022/04/20 00:15:04;;;;;;;3.27;2.98;;;;;;;13.69;38.25;101171.81;1640061;87;21028;-60
2022/04/20 00:17:32;;;;;;;4.95;3.85;;;;;;;13.66;38.54;101173.22;1640362;87;21016;-60
2022/04/20 00:20:00;;;;;;;4.95;3.65;;;;;;;13.63;38.84;101179.83;1640984;87;21551;-60
2022/04/20 00:22:27;;;;;;;3.87;3.50;;;;;;;13.60;39.05;101180.77;1637007;87;21020;-60
2022/04/20 00:24:55;;;;;;;3.77;3.37;;;;;;;13.58;39.30;101176.50;1637848;87;21024;-60
2022/04/20 00:27:22;;;;;;;4.55;3.70;;;;;;;13.55;39.58;101187.03;1638127;87;21059;-60
2022/04/20 00:29:49;;;;;;;5.75;3.10;;;;;;;13.54;39.90;101181.41;1637852;87;21564;-61
2022/04/20 00:32:15;;;;;;;4.25;3.80;;;;;;;13.52;40.09;101191.02;1639554;87;21079;-61
2022/04/20 00:34:43;;;;;;;3.20;2.85;;;;;;;13.49;40.05;101188.50;1640491;87;21008;-59
2022/04/20 00:37:10;;;;;;;5.72;3.52;;;;;;;13.47;39.87;101200.76;1636912;87;21137;-60
2022/04/20 00:39:38;;;;;;;4.17;3.30;;;;;;;13.44;39.89;101190.37;1611893;87;21031;-60
2022/04/20 00:42:07;;;;;;;11.22;3.20;;;;;;;13.41;39.75;101193.95;1646652;87;21608;-60
2022/04/20 00:44:35;;;;;;;4.92;3.10;;;;;;;13.39;39.28;101198.36;1639340;87;21091;-60
2022/04/20 00:47:02;;;;;;;3.35;3.00;;;;;;;13.37;38.96;101201.90;1635805;87;21031;-60
2022/04/20 00:49:31;;;;;;;4.20;2.90;;;;;;;13.34;38.69;101191.52;1625327;87;21547;-61
2022/04/20 00:51:58;;;;;;;3.25;2.92;;;;;;;13.33;38.63;101192.42;1637074;87;21071;-61
2022/04/20 00:54:26;;;;;;;6.33;3.30;;;;;;;13.33;38.68;101191.12;1639105;87;21028;-60
2022/04/20 00:56:53;;;;;;;6.08;3.17;;;;;;;13.32;38.80;101190.69;1638717;87;21097;-61
2022/04/20 00:59:24;;;;;;;3.55;2.83;;;;;;;13.32;39.05;101195.92;1638157;87;21118;-61
2022/04/20 01:01:52;;;;;;;3.90;3.10;;;;;;;13.30;39.12;101195.97;1639023;87;21085;-61
2022/04/20 01:04:20;;;;;;;3.87;3.47;;;;;;;13.31;39.07;101194.22;1638150;87;21636;-61
2022/04/20 01:06:49;;;;;;;4.10;3.33;;;;;;;13.29;39.13;101193.41;1608007;89;21047;-61
2022/04/20 01:09:19;;;;;;;4.45;3.20;;;;;;;13.28;39.33;101202.99;1556006;92;21068;-62
2022/04/20 01:11:51;;;;;;;4.55;3.08;;;;;;;13.28;39.35;101199.52;1559243;91;21672;-61
2022/04/20 01:14:20;;;;;;;4.50;3.35;;;;;;;13.28;39.46;101202.13;1499653;95;21109;-61
2022/04/20 01:17:05;;;;;;;4.47;3.47;;;;;;;13.28;39.50;101206.91;1429807;100;21123;-61
2022/04/20 01:19:51;;;;;;;6.75;3.77;;;;;;;13.27;39.61;101203.88;1408896;100;21633;-60
2022/04/20 01:22:27;;;;;;;4.00;3.42;;;;;;;13.26;39.57;101202.61;1440461;100;21121;-61
2022/04/20 01:25:09;;;;;;;3.72;3.33;;;;;;;13.25;39.69;101204.84;1367696;105;21215;-61
2022/04/20 01:27:41;;;;;;;4.00;3.60;;;;;;;13.25;39.86;101204.84;1367726;105;21152;-60
2022/04/20 01:30:11;;;;;;;4.65;2.92;;;;;;;13.24;39.97;101208.33;1380492;104;21164;-61
2022/04/20 01:32:45;;;;;;;5.83;3.22;;;;;;;13.24;40.13;101213.55;1380400;104;21143;-62
2022/04/20 01:35:14;;;;;;;4.05;3.47;;;;;;;13.22;40.29;101212.30;1380434;104;21135;-61
2022/04/20 01:37:42;;;;;;;5.53;3.77;;;;;;;13.20;40.44;101208.00;1380641;104;21167;-61
2022/04/20 01:40:10;;;;;;;4.33;3.33;;;;;;;13.18;40.71;101204.13;1380612;104;21654;-63
2022/04/20 01:42:37;;;;;;;3.67;3.37;;;;;;;13.16;41.25;101203.31;1380717;104;21115;-61
2022/04/20 01:45:07;;;;;;;5.28;3.80;;;;;;;13.14;41.85;101202.93;1372154;104;21222;-61
2022/04/20 01:47:44;;;;;;;4.25;3.67;;;;;;;13.12;42.34;101208.64;1395833;102;21148;-62
2022/04/20 01:50:23;;;;;;;4.08;3.67;;;;;;;13.08;42.48;101210.01;1402413;101;21104;-61
2022/04/20 01:52:58;;;;;;;3.90;3.40;;;;;;;13.06;42.79;101210.50;1470334;96;21177;-62
2022/04/20 01:55:43;;;;;;;3.62;3.10;;;;;;;13.03;43.20;101209.69;1472805;96;21209;-62
2022/04/20 01:58:11;;;;;;;7.72;3.50;;;;;;;13.00;42.46;101206.70;1463952;97;21092;-62
2022/04/20 02:00:46;;;;;;;5.28;3.65;;;;;;;12.98;42.31;101205.88;1463998;97;21065;-61
2022/04/20 02:03:16;;;;;;;5.37;3.85;;;;;;;12.96;42.80;101206.36;1432405;98;21140;-61
2022/04/20 02:06:02;;;;;;;4.10;3.70;;;;;;;12.95;43.23;101215.11;1450184;99;21605;-61
2022/04/20 02:08:35;;;;;;;4.20;3.62;;;;;;;12.93;43.41;101213.42;1463755;97;21127;-62
2022/04/20 02:11:16;;;;;;;4.47;3.92;;;;;;;12.91;43.59;101213.47;1467674;98;21170;-62
2022/04/20 02:13:44;;;;;;;4.37;3.90;;;;;;;12.90;43.83;101219.57;1467414;98;21134;-62
2022/04/20 02:16:12;;;;;;;4.28;3.70;;;;;;;12.89;43.88;101215.26;1467414;98;21593;-61
2022/04/20 02:18:57;;;;;;;4.55;3.75;;;;;;;12.89;43.94;101217.00;1467684;98;21098;-61
2022/04/20 02:21:38;;;;;;;4.28;3.87;;;;;;;12.86;44.11;101219.23;1400428;102;21212;-62
2022/04/20 02:24:06;;;;;;;4.42;4.00;;;;;;;12.84;44.06;101219.72;1400585;102;21176;-62
2022/04/20 02:26:33;;;;;;;5.08;3.77;;;;;;;12.84;44.03;101224.08;1400427;102;21185;-61
2022/04/20 02:29:01;;;;;;;5.58;4.00;;;;;;;12.83;44.06;101217.16;1400654;101;21170;-63
2022/04/20 02:31:27;;;;;;;5.25;4.05;;;;;;;12.81;44.19;101214.58;1400715;102;21119;-62
2022/04/20 02:33:55;;;;;;;4.50;3.83;;;;;;;12.80;44.39;101220.69;1400372;101;22597;-61
2022/04/20 02:36:22;;;;;;;4.30;3.90;;;;;;;12.80;44.25;101217.20;1426929;100;21651;-62
2022/04/20 02:38:52;;;;;;;4.87;4.33;;;;;;;12.78;44.19;101222.47;1422188;99;21237;-62
2022/04/20 02:41:20;;;;;;;4.92;4.12;;;;;;;12.76;44.24;101221.66;1407854;100;21148;-64
2022/04/20 02:43:48;;;;;;;4.83;4.30;;;;;;;12.75;44.36;101224.31;1435129;100;21131;-62
2022/04/20 02:46:15;;;;;;;3.98;3.58;;;;;;;12.74;44.37;101224.75;1421497;99;21106;-61
2022/04/20 02:48:42;;;;;;;5.58;3.80;;;;;;;12.74;44.45;101226.05;1476268;97;21688;-62
2022/04/20 02:51:10;;;;;;;4.85;3.90;;;;;;;12.73;44.68;101223.48;1481717;97;21108;-62
2022/04/20 02:53:39;;;;;;;4.22;3.83;;;;;;;12.71;44.80;101223.53;1481841;97;21108;-61
2022/04/20 02:56:06;;;;;;;5.00;3.83;;;;;;;12.71;44.87;101222.66;1472457;97;21124;-61
2022/04/20 02:58:34;;;;;;;4.95;4.15;;;;;;;12.69;44.96;101226.63;1518741;92;21148;-62
2022/04/20 03:01:03;;;;;;;4.47;4.08;;;;;;;12.71;44.83;101227.88;1607939;88;21594;-62
2022/04/20 03:03:34;;;;;;;;;;;;;;;12.70;44.85;101223.10;1617757;89;21065;-62
2022/04/20 03:06:04;;;;;;;4.65;4.25;;;;;;;12.72;44.89;101222.62;1626633;88;20406;-62
2022/04/20 03:08:32;;;;;;;5.25;4.62;;;;;;;12.74;44.89;101226.49;1642141;87;21014;-61
2022/04/20 03:11:00;;;;;;;6.65;4.65;;;;;;;12.74;44.84;101227.36;1639669;87;21134;-61
2022/04/20 03:13:27;;;;;;;7.17;4.92;;;;;;;12.74;44.91;101230.41;1632995;88;21046;-61
2022/04/20 03:15:54;;;;;;;5.00;4.50;;;;;;;12.74;44.94;101230.41;1642750;87;21559;-62
2022/04/20 03:18:20;;;;;;;5.28;4.37;;;;;;;12.72;45.03;101230.45;1632267;88;21087;-61
2022/04/20 03:20:51;;;;;;;6.65;4.47;;;;;;;12.70;45.20;101229.63;1633645;88;21131;-62
2022/04/20 03:23:20;;;;;;;6.97;4.50;;;;;;;12.68;45.43;101235.77;1633606;88;21157;-62
2022/04/20 03:25:49;;;;;;;5.58;4.08;;;;;;;12.64;45.60;101225.86;1633417;88;21062;-61
2022/04/20 03:28:24;;;;;;;4.55;4.15;;;;;;;12.63;45.74;101229.34;1634214;87;21039;-60
2022/04/20 03:30:52;;;;;;;4.60;4.20;;;;;;;12.60;45.92;101229.42;1633371;88;21146;-60
2022/04/20 03:33:19;;;;;;;4.40;4.00;;;;;;;12.60;46.08;101231.17;1642781;87;21130;-60
2022/04/20 03:35:47;;;;;;;4.58;4.08;;;;;;;12.59;46.18;101229.47;1633129;88;21584;-61
2022/04/20 03:38:13;;;;;;;4.67;4.20;;;;;;;12.58;46.32;101232.52;1646779;86;21107;-61
2022/04/20 03:40:40;;;;;;;7.17;4.17;;;;;;;12.60;46.43;101241.61;1610015;89;21109;-60
2022/04/20 03:43:09;;;;;;;4.37;3.98;;;;;;;12.60;46.45;101242.48;1641389;86;21102;-61
2022/04/20 03:45:38;;;;;;;4.75;3.70;;;;;;;12.62;46.33;101244.61;1630469;87;21023;-61
2022/04/20 03:48:05;;;;;;;4.53;3.70;;;;;;;12.63;46.29;101235.88;1630296;87;21078;-62
2022/04/20 03:50:34;;;;;;;3.95;3.52;;;;;;;12.65;46.31;101239.30;1632043;86;21066;-62
2022/04/20 03:53:02;;;;;;;4.70;4.08;;;;;;;12.65;46.22;101247.14;1621598;88;21523;-62
2022/04/20 03:55:29;;;;;;;4.95;3.85;;;;;;;12.64;46.09;101251.97;1589069;89;21061;-61
2022/04/20 03:57:56;;;;;;;4.65;4.20;;;;;;;12.63;46.08;101252.84;1601864;89;21110;-62
2022/04/20 04:00:25;;;;;;;4.03;3.62;;;;;;;12.64;46.09;101253.70;1603027;89;21125;-61
2022/04/20 04:02:53;;;;;;;4.70;3.90;;;;;;;12.66;46.10;101263.67;1602524;89;21541;-61
2022/04/20 04:05:32;;;;;;;4.87;4.08;;;;;;;12.65;46.15;101264.11;1622368;88;21028;-61
2022/04/20 04:08:01;;;;;;;4.95;4.45;;;;;;;12.64;46.15;101261.09;1621383;88;21055;-61
2022/04/20 04:10:30;;;;;;;5.10;4.60;;;;;;;12.65;46.20;101262.80;1588363;90;21114;-61
2022/04/20 04:12:57;;;;;;;4.78;4.35;;;;;;;12.66;46.45;101268.89;1601660;89;21574;-61
2022/04/20 04:15:26;;;;;;;4.80;3.60;;;;;;;12.69;46.57;101271.02;1605086;89;21111;-61
2022/04/20 04:17:58;;;;;;;5.72;4.20;;;;;;;12.73;46.55;101268.74;1589452;89;21515;-60
2022/04/20 04:20:26;;;;;;;4.42;3.92;;;;;;;12.78;46.56;101265.56;1622181;88;21098;-61
2022/04/20 04:22:55;;;;;;;4.65;4.10;;;;;;;12.81;46.53;101273.34;1601846;89;21522;-61
2022/04/20 04:25:27;;;;;;;7.00;4.30;;;;;;;12.86;46.39;101271.91;1601127;89;21079;-62
2022/04/20 04:27:54;;;;;;;7.28;4.08;;;;;;;12.87;46.30;101266.67;1588746;89;21099;-62
2022/04/20 04:30:21;;;;;;;5.00;4.42;;;;;;;12.89;46.21;101272.72;1588268;89;21593;-61
2022/04/20 04:32:54;;;;;;;4.85;4.30;;;;;;;12.91;46.23;101277.45;1595210;89;21099;-62
2022/04/20 04:35:22;;;;;;;6.15;4.25;;;;;;;12.92;46.27;101283.55;1588224;89;21571;-61
2022/04/20 04:37:51;;;;;;;4.70;4.30;;;;;;;12.93;46.37;101284.81;1591029;89;21125;-61
2022/04/20 04:40:20;;;;;;;4.72;4.20;;;;;;;12.93;46.47;101281.33;1599797;88;21063;-61
2022/04/20 04:42:48;;;;;;;4.22;3.77;;;;;;;12.95;46.74;101289.99;1594535;89;21151;-62
2022/04/20 04:50:47;;;;;;;5.70;4.10;;;;;;;12.94;47.14;101302.19;1592402;89;21072;-62
2022/04/20 04:53:14;;;;;;;5.15;4.33;;;;;;;12.96;47.20;101315.23;1592084;89;21567;-63
2022/04/20 04:55:41;;;;;;;5.58;4.05;;;;;;;12.98;47.20;101320.81;1593194;89;21087;-62
2022/04/20 04:58:10;;;;;;;4.95;4.33;;;;;;;13.00;46.94;101317.72;1594755;89;21115;-63
2022/04/20 05:00:37;;;;;;;5.87;4.55;;;;;;;13.06;46.66;101318.09;1604389;89;21095;-61
2022/04/20 05:03:09;;;;;;;6.17;4.15;;;;;;;13.09;46.52;101321.91;1592324;89;21138;-62
2022/04/20 05:05:37;;;;;;;4.92;4.37;;;;;;;13.12;46.36;101320.55;1594944;89;21086;-62
2022/04/20 05:08:06;;;;;;;4.28;3.87;;;;;;;13.16;46.31;101321.33;1594359;89;21535;-61
2022/04/20 05:10:34;;;;;;;5.53;3.95;;;;;;;13.19;46.20;101331.25;1593946;89;21584;-62
2022/04/20 05:13:02;;;;;;;5.78;4.22;;;;;;;13.21;45.74;101329.47;1594051;89;21150;-61
2022/04/20 05:15:31;;;;;;;6.65;3.62;;;;;;;13.24;45.77;101325.93;1593747;89;21035;-62
2022/04/20 05:18:00;;;;;;;4.58;3.65;;;;;;;13.25;45.54;101335.50;1594648;89;21067;-61
2022/04/20 05:20:29;;;;;;;3.75;3.40;;;;;;;13.27;45.62;101332.41;1590966;89;21047;-62
2022/04/20 05:22:57;;;;;;;5.47;3.60;;;;;;;13.30;45.72;101341.47;1606549;87;21157;-62
2022/04/20 05:25:26;;;;;;;4.03;3.35;;;;;;;13.31;45.86;101351.04;1633141;87;21026;-61
2022/04/20 05:27:54;;;;;;;4.85;3.77;;;;;;;13.31;46.17;101345.37;1633820;87;21606;-62
2022/04/20 05:30:22;;;;;;;5.90;4.25;;;;;;;13.33;46.32;101349.25;1623187;87;21597;-61
2022/04/20 05:32:50;;;;;;;5.55;4.30;;;;;;;13.34;46.72;101353.56;1635528;87;21126;-62
2022/04/20 05:35:18;;;;;;;4.62;3.87;;;;;;;13.35;46.88;101351.38;1635317;87;21134;-62
2022/04/20 05:43:20;;;;;;;7.37;4.08;;;;;;;13.36;47.63;101352.64;1660095;86;21582;-61
2022/04/20 05:45:47;;;;;;;6.70;3.77;;;;;;;13.39;48.02;101358.25;1640003;86;21076;-62
2022/04/20 05:48:25;;;;;;;4.05;3.50;;;;;;;13.41;48.43;101361.25;1650447;86;21046;-62
2022/04/20 05:50:52;;;;;;;4.72;3.80;;;;;;;13.44;48.65;101362.47;1629769;88;21514;-62
2022/04/20 05:53:19;;;;;;;4.25;3.72;;;;;;;13.48;48.73;101358.87;1625898;88;21101;-62
2022/04/20 05:55:46;;;;;;;5.58;3.70;;;;;;;13.52;48.89;101358.34;1624690;88;21074;-61
2022/04/20 05:58:14;;;;;;;4.20;3.80;;;;;;;13.55;48.90;101351.75;1624532;88;21575;-62
2022/04/20 06:00:42;;;;;;;4.10;3.70;;;;;;;13.60;48.72;101359.05;1622310;88;21061;-61
2022/04/20 06:03:23;;;;;;;4.50;4.10;;;;;;;13.62;48.84;101353.33;1537906;92;21546;-62
2022/04/20 06:05:51;;;;;;;4.25;3.85;;;;;;;13.64;48.97;101358.91;1538910;93;21528;-62
2022/04/20 06:08:30;;;;;;;7.45;4.65;;;;;;;13.67;49.22;101359.29;1564366;91;21594;-61
2022/04/20 06:10:59;;;;;;;5.50;4.10;;;;;;;13.69;49.16;101358.80;1571150;91;21043;-61
2022/04/20 06:13:28;;;;;;;5.65;3.95;;;;;;;13.68;48.95;101364.95;1572322;91;21149;-61
2022/04/20 06:16:06;;;;;;;3.92;3.50;;;;;;;13.70;49.44;101373.61;1561343;91;21088;-62
2022/04/20 06:18:35;;;;;;;5.10;3.87;;;;;;;13.72;49.75;101366.59;1573695;91;21043;-61
2022/04/20 06:21:06;;;;;;;4.03;3.60;;;;;;;13.74;49.47;101371.33;1570107;91;21106;-62
2022/04/20 06:23:48;;;;;;;4.57;3.57;;;;;;;13.75;48.93;101364.75;1565195;91;21086;-62
2022/04/20 06:26:21;;;;;;;5.05;3.98;;;;;;;13.77;48.94;101367.31;1570940;91;21115;-61
2022/04/20 06:29:05;;;;;;;4.15;3.45;;;;;;;13.79;48.51;101363.77;1537543;93;21102;-61
2022/04/20 06:34:29;;;;;;;4.67;3.35;;;;;;;13.87;48.74;101360.51;1533471;93;21127;-62
2022/04/20 06:37:15;;;;;;;5.10;3.67;;;;;;;13.95;48.37;101368.15;1536563;93;21644;-62
2022/04/20 06:39:54;;;;;;;4.70;3.65;;;;;;;13.99;48.27;101365.89;1534703;93;21102;-62
2022/04/20 06:42:30;;;;;;;6.15;3.50;;;;;;;14.04;48.33;101364.44;1525535;94;21126;-61
2022/04/20 06:45:03;;;;;;;3.85;3.55;;;;;;;14.09;48.22;101364.75;1482141;97;21114;-61
2022/04/20 06:47:33;;;;;;;4.50;3.67;;;;;;;14.15;48.13;101368.52;1481191;97;21136;-63
2022/04/20 06:50:18;;;;;;;4.00;3.60;;;;;;;14.22;47.86;101369.21;1465289;97;21159;-63
2022/04/20 06:58:32;;;;;;;4.30;3.90;;;;;;;14.36;47.12;101374.48;1481109;97;21671;-61
2022/04/20 07:01:05;;;;;;;4.22;3.77;;;;;;;14.42;47.23;101373.04;1480998;96;21168;-61
2022/04/20 07:03:37;;;;;;;4.80;3.92;;;;;;;14.44;47.16;101369.92;1432349;98;21142;-61
2022/04/20 07:06:27;;;;;;;7.25;4.17;;;;;;;14.48;47.33;101366.77;1411670;101;21176;-61
2022/04/20 07:09:08;;;;;;;5.33;3.92;;;;;;;14.50;47.40;101361.90;1408476;102;21680;-61
2022/04/20 07:11:38;;;;;;;4.15;3.75;;;;;;;14.55;47.73;101357.81;1411654;101;21175;-60
2022/04/20 07:14:07;;;;;;;4.15;3.75;;;;;;;14.59;47.37;101360.30;1410824;101;21664;-61
2022/04/20 07:16:34;;;;;;;6.70;4.20;;;;;;;14.62;46.57;101361.55;1424151;100;21091;-61
2022/04/20 07:19:07;;;;;;;4.85;3.35;;;;;;;14.66;46.19;101365.80;1446000;97;21143;-61
2022/04/20 07:21:44;;;;;;;3.60;3.27;;;;;;;14.69;45.88;101360.45;1476272;97;21122;-62
2022/04/20 07:24:26;;;;;;;3.72;3.40;;;;;;;14.73;45.67;101365.61;1464373;97;21137;-61
2022/04/20 07:27:02;;;;;;;3.92;3.42;;;;;;;14.75;44.89;101365.12;1467556;98;21179;-62
2022/04/20 07:29:34;;;;;;;5.08;4.10;;;;;;;14.75;44.86;101372.53;1440414;98;21127;-62
2022/04/20 07:32:12;;;;;;;4.00;3.50;;;;;;;14.74;44.73;101366.88;1440406;100;21154;-62
2022/04/20 07:34:41;;;;;;;4.20;3.80;;;;;;;14.74;44.79;101364.69;1398978;103;21115;-61
2022/04/20 07:37:28;;;;;;;5.33;3.77;;;;;;;14.75;45.00;101359.88;1408266;102;21149;-62
2022/04/20 07:39:57;;;;;;;4.87;4.03;;;;;;;14.79;45.10;101364.12;1382298;103;21189;-62
2022/04/20 07:42:28;;;;;;;5.85;3.72;;;;;;;14.84;45.18;101363.07;1390727;102;21140;-62
2022/04/20 07:45:04;;;;;;;4.10;3.70;;;;;;;14.90;45.38;101367.30;1411144;101;21158;-61
2022/04/20 07:47:52;;;;;;;5.03;4.08;;;;;;;14.94;44.98;101357.12;1417559;101;21720;-61
2022/04/20 07:50:38;;;;;;;4.00;3.60;;;;;;;15.00;44.68;101362.19;1418625;101;21084;-63
2022/04/20 07:53:09;;;;;;;3.85;3.50;;;;;;;15.08;44.55;101357.56;1390381;103;21191;-61
2022/04/20 07:56:06;;;;;;;5.30;3.37;;;;;;;15.14;44.30;101354.31;1396072;103;21192;-62
2022/04/20 07:59:03;;;;;;;4.37;3.72;;;;;;;15.24;43.96;101354.42;1395897;103;21596;-62
2022/04/20 08:01:48;;;;;;;3.47;3.00;;;;;;;15.33;44.17;101354.59;1390978;103;21620;-61
2022/04/20 08:04:33;;;;;;;4.30;3.72;;;;;;;15.40;43.32;101356.09;1392603;103;21092;-61
2022/04/20 08:07:04;;;;;;;3.33;3.02;;;;;;;15.43;42.53;101355.56;1396898;102;21118;-62
2022/04/20 08:09:32;;;;;;;3.00;2.70;;;;;;;15.45;43.12;101358.16;1412385;102;21596;-61
2022/04/20 08:12:00;;;;;;;3.95;2.80;;;;;;;15.45;42.89;101358.16;1400917;102;21611;-61
2022/04/20 08:14:28;;;;;;;2.87;2.52;;;;;;;15.46;42.84;101357.23;1412572;102;21214;-62
2022/04/20 08:17:03;;;;;;;5.35;3.08;;;;;;;15.50;42.35;101360.16;1374452;104;21163;-62
2022/04/20 08:19:31;;;;;;;3.77;2.95;;;;;;;15.55;41.97;101367.45;1378539;104;21196;-61
2022/04/20 08:22:06;;;;;;;3.30;3.00;;;;;;;15.62;41.75;101366.32;1341488;104;21171;-61
2022/04/20 08:24:35;;;;;;;4.28;3.02;;;;;;;15.71;41.60;101366.03;1298937;109;21174;-61
2022/04/20 08:27:03;;;;;;;3.72;3.10;;;;;;;15.79;41.40;101357.45;1333315;106;21174;-62
2022/04/20 08:29:30;;;;;;;4.10;3.55;;;;;;;15.91;40.80;101360.13;1335856;104;21152;-61
2022/04/20 08:31:58;;;;;;;3.90;2.85;;;;;;;16.01;41.08;101357.11;1421773;98;21131;-62
2022/04/20 08:34:24;;;;;;;6.30;3.33;;;;;;;16.11;40.54;101358.98;1443841;98;21162;-61
2022/04/20 08:36:52;;;;;;;3.30;3.02;;;;;;;16.18;40.45;101357.39;1450986;96;21132;-61
2022/04/20 08:39:20;;;;;;;5.28;3.02;;;;;;;16.24;40.19;101358.48;1466372;96;21147;-61
2022/04/20 08:41:49;;;;;;;3.60;2.98;;;;;;;16.30;40.01;101359.58;1466318;96;21168;-61
2022/04/20 08:44:28;;;;;;;3.27;2.42;;;;;;;16.35;39.90;101364.67;1466630;96;21148;-61
2022/04/20 08:46:57;;;;;;;2.60;2.40;;;;;;;16.41;39.48;101358.34;1466564;96;21175;-61
2022/04/20 08:49:24;;;;;;;6.20;3.15;;;;;;;16.42;38.90;101367.95;1466688;96;21064;-62
2022/04/20 08:54:39;;;;;;;5.03;2.50;;;;;;;16.36;39.43;101366.86;1545796;89;21127;-62
2022/04/20 08:57:16;;;;;;;2.98;2.67;;;;;;;16.36;39.34;101365.55;1551029;91;21068;-61
2022/04/20 08:59:45;;;;;;;2.75;2.22;;;;;;;16.34;38.93;101359.48;1636011;86;21055;-61
2022/04/20 09:02:13;;;;;;;3.25;2.55;;;;;;;16.34;38.87;101359.48;1657755;86;21030;-62
2022/04/20 09:04:41;;;;;;;3.10;2.52;;;;;;;16.33;39.09;101355.13;1658046;86;21117;-61
2022/04/20 09:07:11;;;;;;;3.05;2.45;;;;;;;16.35;38.81;101357.25;1658094;86;21086;-61
2022/04/20 09:09:38;;;;;;;3.75;2.70;;;;;;;16.38;38.82;101363.72;1667273;86;21504;-61
2022/04/20 09:12:11;;;;;;;2.42;2.22;;;;;;;16.38;38.46;101354.52;1666959;85;21032;-61
2022/04/20 09:14:40;;;;;;;3.45;2.72;;;;;;;16.38;38.43;101356.70;1612251;88;21106;-61
2022/04/20 09:17:13;;;;;;;3.93;2.73;;;;;;;16.38;38.58;101363.72;1612560;89;21050;-61
2022/04/20 09:19:40;;;;;;;;;;;;;;;16.40;38.04;101360.58;1609858;89;21066;-62
2022/04/20 09:22:20;;;;;;;3.80;2.40;;;;;;;16.40;37.21;101356.64;1612200;89;20131;-62
2022/04/20 09:25:04;;;;;;;3.37;2.62;;;;;;;16.39;37.35;101353.59;1607264;89;21105;-61
2022/04/20 09:27:32;;;;;;;2.30;2.10;;;;;;;16.37;37.10;101355.42;1607691;89;21018;-62
2022/04/20 09:30:01;;;;;;;2.55;2.35;;;;;;;16.37;37.02;101344.91;1612347;89;21050;-63
2022/04/20 09:32:37;;;;;;;3.25;2.30;;;;;;;16.39;37.01;101345.27;1611938;89;21591;-62
2022/04/20 09:35:09;;;;;;;3.10;2.50;;;;;;;16.43;36.77;101343.38;1625613;88;21017;-61
2022/04/20 09:37:36;;;;;;;3.92;2.10;;;;;;;16.47;36.80;101339.73;1625914;88;21052;-63
2022/04/20 09:40:10;;;;;;;3.40;2.30;;;;;;;16.54;36.97;101337.32;1573009;91;21085;-62
2022/04/20 09:42:35;;;;;;;3.02;2.30;;;;;;;16.64;36.87;101340.00;1569991;91;21065;-62
2022/04/20 09:45:07;;;;;;;2.70;2.30;;;;;;;16.76;36.71;101339.53;1571305;90;21613;-62
2022/04/20 09:50:27;;;;;;;3.05;2.30;;;;;;;16.94;37.57;101330.94;1573414;91;21081;-63
2022/04/20 09:52:55;;;;;;;4.12;2.50;;;;;;;17.01;38.01;101323.23;1573512;91;21100;-63
2022/04/20 09:55:32;;;;;;;5.00;2.67;;;;;;;17.06;38.19;101330.49;1573205;91;21081;-63
2022/04/20 09:58:22;;;;;;;5.78;2.35;;;;;;;17.09;38.61;101322.47;1573181;91;21061;-61
2022/04/20 10:00:54;;;;;;;3.58;2.58;;;;;;;17.11;38.61;101323.27;1519631;94;21065;-62
2022/04/20 10:03:28;;;;;;;;;;;;;;;17.07;38.68;101319.05;1520474;94;21538;-60
2022/04/20 10:05:56;;;;;;;5.42;2.92;;;;;;;16.99;38.96;101331.63;1523079;94;20115;-60
2022/04/20 10:08:23;;;;;;;4.08;2.70;;;;;;;16.85;39.31;101332.18;1523276;94;21081;-61
2022/04/20 10:10:54;;;;;;;3.37;2.58;;;;;;;16.71;40.52;101334.45;1523176;94;21061;-60
2022/04/20 10:13:23;;;;;;;3.77;3.15;;;;;;;16.56;41.77;101340.30;1478760;97;21686;-62
2022/04/20 10:16:05;;;;;;;3.45;3.15;;;;;;;16.40;43.18;101343.06;1475751;96;21097;-61
2022/04/20 10:18:37;;;;;;;8.13;3.92;;;;;;;16.24;44.48;101346.67;1509761;94;21148;-62
2022/04/20 10:21:11;;;;;;;4.60;4.05;;;;;;;16.07;45.59;101346.40;1533813;92;21052;-62
2022/04/20 10:23:47;;;;;;;6.78;4.42;;;;;;;15.94;46.30;101341.64;1474331;96;21697;-62
2022/04/20 10:26:16;;;;;;;6.70;4.40;;;;;;;15.80;46.89;101336.88;1473873;96;21058;-62
2022/04/20 10:29:10;;;;;;;4.95;3.80;;;;;;;15.72;47.10;101343.28;1475616;96;21142;-62
2022/04/20 10:31:58;;;;;;;;;;;;;;;15.61;47.19;101341.02;1482064;96;21150;-62
2022/04/20 10:34:25;;;;;;;6.72;3.90;;;;;;;15.50;47.83;101341.80;1425333;99;20254;-61
2022/04/20 10:37:10;;;;;;;6.50;4.25;;;;;;;15.43;48.00;101337.69;1437155;99;21200;-62
2022/04/20 10:39:40;;;;;;;4.55;4.15;;;;;;;15.43;48.31;101335.06;1412953;99;21204;-62
2022/04/20 10:42:19;;;;;;;5.62;3.80;;;;;;;15.48;48.08;101339.69;1444902;99;21145;-62
2022/04/20 10:45:07;;;;;;;3.85;3.47;;;;;;;15.50;47.80;101345.74;1447116;99;21195;-60
2022/04/20 10:47:42;;;;;;;4.78;4.20;;;;;;;15.48;47.42;101345.80;1440873;99;21154;-62
2022/04/20 10:50:21;;;;;;;5.17;4.10;;;;;;;15.46;47.65;101357.23;1442387;99;21148;-64
2022/04/20 10:55:41;;;;;;;6.17;4.78;;;;;;;15.44;47.53;101366.92;1421113;100;21162;-61
2022/04/20 10:58:20;;;;;;;5.08;4.30;;;;;;;15.45;47.34;101360.78;1421490;100;21160;-63
2022/04/20 11:00:47;;;;;;;5.17;4.47;;;;;;;15.45;46.77;101347.67;1421187;100;21205;-62
2022/04/20 11:03:16;;;;;;;4.83;4.33;;;;;;;15.43;46.93;101341.63;1424011;100;21145;-61
2022/04/20 11:05:55;;;;;;;4.80;4.40;;;;;;;15.38;46.81;101340.86;1427602;100;21145;-63
2022/04/20 11:08:25;;;;;;;4.20;3.77;;;;;;;15.33;46.83;101345.41;1432511;100;21110;-63
2022/04/20 11:19:54;;;;;;;5.28;3.35;;;;;;;14.92;48.18;101356.31;1443232;97;21128;-64
2022/04/20 11:22:26;;;;;;;5.25;3.00;;;;;;;14.82;48.63;101365.36;1475509;97;21111;-62
2022/04/20 11:25:02;;;;;;;4.72;3.27;;;;;;;14.74;48.97;101371.24;1475654;96;21543;-62
2022/04/20 11:27:34;;;;;;;6.67;3.52;;;;;;;14.68;49.23;101363.13;1475582;97;21087;-62
2022/04/20 11:30:03;;;;;;;5.25;2.40;;;;;;;14.63;49.09;101388.60;1529650;92;21083;-62
2022/04/20 11:32:31;;;;;;;2.62;2.42;;;;;;;14.55;47.43;101395.34;1539001;91;21096;-63
2022/04/20 11:35:11;;;;;;;5.37;2.90;;;;;;;14.47;47.25;101401.25;1635283;88;21589;-63
2022/04/20 11:37:39;;;;;;;3.12;2.22;;;;;;;14.37;47.16;101401.09;1585859;90;21106;-64
2022/04/20 11:40:13;;;;;;;2.67;1.80;;;;;;;14.26;47.37;101401.78;1585902;90;21584;-64
2022/04/20 11:42:42;;;;;;;2.60;2.20;;;;;;;14.16;47.30;101402.92;1584805;90;21069;-63
2022/04/20 11:45:11;;;;;;;4.05;2.00;;;;;;;14.08;47.62;101401.41;1585888;90;21013;-63
2022/04/20 11:47:40;;;;;;;5.10;2.62;;;;;;;14.01;48.27;101405.97;1585832;90;21049;-64
2022/04/20 11:50:09;;;;;;;3.80;2.30;;;;;;;13.93;48.67;101398.73;1585761;90;21582;-63
2022/04/20 11:52:58;;;;;;;5.65;2.98;;;;;;;13.88;49.12;101402.79;1578143;90;21089;-63
2022/04/20 11:55:34;;;;;;;3.42;2.67;;;;;;;13.84;49.75;101392.44;1549980;92;21133;-63
2022/04/20 11:58:14;;;;;;;4.58;2.85;;;;;;;13.80;49.44;101390.80;1546829;92;21573;-62
2022/04/20 12:00:44;;;;;;;4.65;2.75;;;;;;;13.78;49.75;101392.59;1547413;92;21064;-63
2022/04/20 12:03:12;;;;;;;4.22;2.72;;;;;;;13.78;49.93;101398.69;1565859;89;21532;-63
2022/04/20 12:05:38;;;;;;;4.20;3.05;;;;;;;13.77;49.25;101394.34;1567847;91;21093;-63
2022/04/20 12:08:09;;;;;;;3.87;3.12;;;;;;;13.78;49.10;101389.97;1567637;91;21051;-62
2022/04/20 12:10:39;;;;;;;3.92;2.98;;;;;;;13.78;49.95;101392.59;1567853;91;21068;-62
2022/04/20 12:13:07;;;;;;;4.75;3.20;;;;;;;13.79;49.71;101395.59;1567804;90;21059;-62
2022/04/20 12:15:35;;;;;;;7.20;3.65;;;;;;;13.81;49.76;101397.73;1567940;91;21593;-62
2022/04/20 12:18:06;;;;;;;3.85;2.80;;;;;;;13.83;49.78;101386.34;1564851;90;21061;-63
2022/04/20 12:20:32;;;;;;;2.83;2.52;;;;;;;13.85;49.42;101378.44;1567994;91;21100;-63